sensor_id;sensor_type;location;lat;lon;timestamp;pressure;altitude;pressure_sealevel;temperature;humidity
71567;BME280;59403;47.456;19.120;2022-12-07T00:01:16;100386.66;;;1.67;100.00
71567;BME280;59403;47.456;19.120;2022-12-07T00:03:45;100392.59;;;1.57;100.00
71567;BME280;59403;47.456;19.120;2022-12-07T00:06:13;100390.50;;;1.62;100.00
71567;BME280;59403;47.456;19.120;2022-12-07T00:08:41;100389.69;;;1.61;100.00
71567;BME280;59403;47.456;19.120;2022-12-07T00:11:11;100395.19;;;1.57;100.00
71567;BME280;59403;47.456;19.120;2022-12-07T00:13:39;100383.94;;;1.56;100.00
71567;BME280;59403;47.456;19.120;2022-12-07T00:16:09;100384.97;;;1.54;100.00
71567;BME280;59403;47.456;19.120;2022-12-07T00:18:36;100377.56;;;1.48;100.00
71567;BME280;59403;47.456;19.120;2022-12-07T00:21:08;100381.84;;;1.49;100.00
71567;BME280;59403;47.456;19.120;2022-12-07T00:23:36;100372.09;;;1.38;100.00
71567;BME280;59403;47.456;19.120;2022-12-07T00:26:04;100375.53;;;1.39;100.00
71567;BME280;59403;47.456;19.120;2022-12-07T00:28:33;100373.97;;;1.36;100.00
71567;BME280;59403;47.456;19.120;2022-12-07T00:31:05;100365.50;;;1.33;100.00
71567;BME280;59403;47.456;19.120;2022-12-07T00:33:33;100363.41;;;1.25;100.00
71567;BME280;59403;47.456;19.120;2022-12-07T00:36:01;100352.97;;;1.25;100.00
71567;BME280;59403;47.456;19.120;2022-12-07T00:38:29;100359.31;;;1.21;100.00
71567;BME280;59403;47.456;19.120;2022-12-07T00:40:56;100354.38;;;1.16;100.00
71567;BME280;59403;47.456;19.120;2022-12-07T00:43:24;100351.44;;;1.08;100.00
71567;BME280;59403;47.456;19.120;2022-12-07T00:45:52;100350.69;;;1.06;100.00
71567;BME280;59403;47.456;19.120;2022-12-07T00:48:19;100349.88;;;1.06;100.00
71567;BME280;59403;47.456;19.120;2022-12-07T00:50:46;100354.88;;;1.09;100.00
71567;BME280;59403;47.456;19.120;2022-12-07T00:53:13;100348.09;;;1.06;100.00
71567;BME280;59403;47.456;19.120;2022-12-07T00:55:40;100346.31;;;1.07;100.00
71567;BME280;59403;47.456;19.120;2022-12-07T00:58:07;100350.47;;;1.09;100.00
71567;BME280;59403;47.456;19.120;2022-12-07T01:00:35;100355.69;;;1.09;100.00
71567;BME280;59403;47.456;19.120;2022-12-07T01:03:05;100348.94;;;1.07;100.00
71567;BME280;59403;47.456;19.120;2022-12-07T01:05:32;100337.97;;;1.02;100.00
71567;BME280;59403;47.456;19.120;2022-12-07T01:07:59;100344.19;;;0.99;100.00
71567;BME280;59403;47.456;19.120;2022-12-07T01:10:26;100348.59;;;0.99;100.00
71567;BME280;59403;47.456;19.120;2022-12-07T01:12:53;100352.00;;;0.99;100.00
71567;BME280;59403;47.456;19.120;2022-12-07T01:15:20;100352.22;;;0.96;100.00
71567;BME280;59403;47.456;19.120;2022-12-07T01:17:47;100354.94;;;0.95;100.00
71567;BME280;59403;47.456;19.120;2022-12-07T01:20:15;100352.53;;;0.92;100.00
71567;BME280;59403;47.456;19.120;2022-12-07T01:22:43;100349.81;;;0.93;100.00
71567;BME280;59403;47.456;19.120;2022-12-07T01:25:11;100343.66;;;0.94;100.00
71567;BME280;59403;47.456;19.120;2022-12-07T01:27:38;100341.03;;;0.94;100.00
71567;BME280;59403;47.456;19.120;2022-12-07T01:30:06;100345.50;;;0.92;100.00
71567;BME280;59403;47.456;19.120;2022-12-07T01:32:33;100342.09;;;0.92;100.00
71567;BME280;59403;47.456;19.120;2022-12-07T01:35:00;100345.72;;;0.89;100.00
71567;BME280;59403;47.456;19.120;2022-12-07T01:37:34;100336.25;;;0.88;100.00
71567;BME280;59403;47.456;19.120;2022-12-07T01:40:01;100343.97;;;0.90;100.00
71567;BME280;59403;47.456;19.120;2022-12-07T01:42:29;100346.03;;;0.85;100.00
71567;BME280;59403;47.456;19.120;2022-12-07T01:48:07;100334.66;;;0.86;100.00
71567;BME280;59403;47.456;19.120;2022-12-07T01:50:35;100336.41;;;0.85;100.00
71567;BME280;59403;47.456;19.120;2022-12-07T01:53:06;100327.94;;;0.82;100.00
71567;BME280;59403;47.456;19.120;2022-12-07T01:55:38;100330.38;;;0.85;100.00
71567;BME280;59403;47.456;19.120;2022-12-07T01:58:06;100331.41;;;0.82;100.00
71567;BME280;59403;47.456;19.120;2022-12-07T02:00:33;100334.09;;;0.81;100.00
71567;BME280;59403;47.456;19.120;2022-12-07T02:05:55;100331.41;;;0.82;100.00
71567;BME280;59403;47.456;19.120;2022-12-07T02:08:24;100329.22;;;0.89;100.00
71567;BME280;59403;47.456;19.120;2022-12-07T02:10:50;100329.13;;;0.90;100.00
71567;BME280;59403;47.456;19.120;2022-12-07T02:13:19;100328.84;;;0.95;100.00
71567;BME280;59403;47.456;19.120;2022-12-07T02:16:06;100320.19;;;0.94;100.00
71567;BME280;59403;47.456;19.120;2022-12-07T02:18:51;100322.41;;;1.00;100.00
71567;BME280;59403;47.456;19.120;2022-12-07T02:21:27;100319.59;;;1.03;100.00
71567;BME280;59403;47.456;19.120;2022-12-07T02:24:24;100324.50;;;1.08;100.00
71567;BME280;59403;47.456;19.120;2022-12-07T02:27:07;100321.72;;;1.11;100.00
71567;BME280;59403;47.456;19.120;2022-12-07T02:29:39;100315.56;;;1.12;100.00
71567;BME280;59403;47.456;19.120;2022-12-07T02:32:11;100322.25;;;1.16;100.00
71567;BME280;59403;47.456;19.120;2022-12-07T02:34:46;100314.22;;;1.19;100.00
71567;BME280;59403;47.456;19.120;2022-12-07T02:37:23;100318.44;;;1.22;100.00
71567;BME280;59403;47.456;19.120;2022-12-07T02:39:55;100325.84;;;1.28;100.00
71567;BME280;59403;47.456;19.120;2022-12-07T02:42:28;100324.28;;;1.25;100.00
71567;BME280;59403;47.456;19.120;2022-12-07T02:44:59;100333.22;;;1.21;100.00
71567;BME280;59403;47.456;19.120;2022-12-07T02:47:29;100329.78;;;1.21;100.00
71567;BME280;59403;47.456;19.120;2022-12-07T02:49:56;100331.09;;;1.13;100.00
71567;BME280;59403;47.456;19.120;2022-12-07T02:52:23;100333.44;;;1.18;100.00
71567;BME280;59403;47.456;19.120;2022-12-07T02:54:50;100328.44;;;1.28;100.00
71567;BME280;59403;47.456;19.120;2022-12-07T02:57:32;100327.22;;;1.33;100.00
71567;BME280;59403;47.456;19.120;2022-12-07T03:00:07;100309.69;;;1.35;100.00
71567;BME280;59403;47.456;19.120;2022-12-07T03:02:41;100315.66;;;1.37;100.00
71567;BME280;59403;47.456;19.120;2022-12-07T03:05:33;100318.91;;;1.41;100.00
71567;BME280;59403;47.456;19.120;2022-12-07T03:08:11;100318.69;;;1.44;100.00
71567;BME280;59403;47.456;19.120;2022-12-07T03:10:44;100317.72;;;1.45;100.00
71567;BME280;59403;47.456;19.120;2022-12-07T03:13:23;100311.59;;;1.46;100.00
71567;BME280;59403;47.456;19.120;2022-12-07T03:15:56;100307.12;;;1.48;100.00
71567;BME280;59403;47.456;19.120;2022-12-07T03:18:29;100310.53;;;1.48;100.00
71567;BME280;59403;47.456;19.120;2022-12-07T03:21:00;100307.12;;;1.48;100.00
71567;BME280;59403;47.456;19.120;2022-12-07T03:23:31;100308.16;;;1.45;100.00
71567;BME280;59403;47.456;19.120;2022-12-07T03:26:01;100308.88;;;1.47;100.00
71567;BME280;59403;47.456;19.120;2022-12-07T03:28:33;100308.78;;;1.49;100.00
71567;BME280;59403;47.456;19.120;2022-12-07T03:31:07;100306.91;;;1.51;100.00
71567;BME280;59403;47.456;19.120;2022-12-07T03:33:40;100307.66;;;1.53;100.00
71567;BME280;59403;47.456;19.120;2022-12-07T03:36:11;100306.69;;;1.54;100.00
71567;BME280;59403;47.456;19.120;2022-12-07T03:38:46;100296.16;;;1.55;100.00
71567;BME280;59403;47.456;19.120;2022-12-07T03:41:18;100300.34;;;1.58;100.00
71567;BME280;59403;47.456;19.120;2022-12-07T03:43:47;100299.38;;;1.59;100.00
71567;BME280;59403;47.456;19.120;2022-12-07T03:46:20;100294.06;;;1.60;100.00
71567;BME280;59403;47.456;19.120;2022-12-07T03:48:56;100299.19;;;1.62;100.00
71567;BME280;59403;47.456;19.120;2022-12-07T03:51:28;100305.13;;;1.64;100.00
71567;BME280;59403;47.456;19.120;2022-12-07T03:54:02;100307.63;;;1.65;100.00
71567;BME280;59403;47.456;19.120;2022-12-07T03:56:34;100309.31;;;1.66;100.00
71567;BME280;59403;47.456;19.120;2022-12-07T03:59:01;100316.19;;;1.67;100.00
71567;BME280;59403;47.456;19.120;2022-12-07T04:01:31;100316.94;;;1.69;100.00
71567;BME280;59403;47.456;19.120;2022-12-07T04:03:58;100311.63;;;1.71;100.00
71567;BME280;59403;47.456;19.120;2022-12-07T04:06:25;100316.03;;;1.70;100.00
71567;BME280;59403;47.456;19.120;2022-12-07T04:08:52;100320.28;;;1.71;100.00
71567;BME280;59403;47.456;19.120;2022-12-07T04:11:19;100319.16;;;1.75;100.00
71567;BME280;59403;47.456;19.120;2022-12-07T04:13:46;100315.59;;;1.76;100.00
71567;BME280;59403;47.456;19.120;2022-12-07T04:16:31;100320.69;;;1.78;100.00
71567;BME280;59403;47.456;19.120;2022-12-07T04:18:58;100326.78;;;1.78;100.00
71567;BME280;59403;47.456;19.120;2022-12-07T04:21:24;100329.28;;;1.80;100.00
71567;BME280;59403;47.456;19.120;2022-12-07T04:23:51;100330.12;;;1.80;100.00
71567;BME280;59403;47.456;19.120;2022-12-07T04:26:18;100324.91;;;1.80;100.00
71567;BME280;59403;47.456;19.120;2022-12-07T04:28:45;100320.91;;;1.75;100.00
71567;BME280;59403;47.456;19.120;2022-12-07T04:31:12;100325.00;;;1.79;100.00
71567;BME280;59403;47.456;19.120;2022-12-07T04:33:40;100326.44;;;1.83;100.00
71567;BME280;59403;47.456;19.120;2022-12-07T04:36:07;100323.66;;;1.86;100.00
71567;BME280;59403;47.456;19.120;2022-12-07T04:38:37;100325.41;;;1.85;100.00
71567;BME280;59403;47.456;19.120;2022-12-07T04:41:05;100327.81;;;1.88;100.00
71567;BME280;59403;47.456;19.120;2022-12-07T04:43:32;100328.78;;;1.87;100.00
71567;BME280;59403;47.456;19.120;2022-12-07T04:45:59;100330.31;;;1.90;100.00
71567;BME280;59403;47.456;19.120;2022-12-07T04:48:26;100326.16;;;1.87;100.00
71567;BME280;59403;47.456;19.120;2022-12-07T04:50:55;100327.78;;;1.76;100.00
71567;BME280;59403;47.456;19.120;2022-12-07T04:53:22;100329.16;;;1.81;100.00
71567;BME280;59403;47.456;19.120;2022-12-07T04:55:49;100322.28;;;1.80;100.00
71567;BME280;59403;47.456;19.120;2022-12-07T04:58:16;100328.53;;;1.78;100.00
71567;BME280;59403;47.456;19.120;2022-12-07T05:00:42;100323.31;;;1.78;100.00
71567;BME280;59403;47.456;19.120;2022-12-07T05:03:09;100319.69;;;1.80;100.00
71567;BME280;59403;47.456;19.120;2022-12-07T05:05:39;100330.31;;;1.77;100.00
71567;BME280;59403;47.456;19.120;2022-12-07T05:08:08;100330.22;;;1.79;100.00
71567;BME280;59403;47.456;19.120;2022-12-07T05:10:35;100331.87;;;1.80;100.00
71567;BME280;59403;47.456;19.120;2022-12-07T05:13:01;100331.16;;;1.78;100.00
71567;BME280;59403;47.456;19.120;2022-12-07T05:15:28;100328.66;;;1.76;100.00
71567;BME280;59403;47.456;19.120;2022-12-07T05:17:55;100321.03;;;1.73;100.00
71567;BME280;59403;47.456;19.120;2022-12-07T05:20:22;100326.03;;;1.76;100.00
71567;BME280;59403;47.456;19.120;2022-12-07T05:22:49;100320.91;;;1.75;100.00
71567;BME280;59403;47.456;19.120;2022-12-07T05:25:17;100319.84;;;1.77;100.00
71567;BME280;59403;47.456;19.120;2022-12-07T05:27:44;100322.91;;;1.71;100.00
71567;BME280;59403;47.456;19.120;2022-12-07T05:30:12;100326.88;;;1.77;100.00
71567;BME280;59403;47.456;19.120;2022-12-07T05:32:39;100321.03;;;1.73;100.00
71567;BME280;59403;47.456;19.120;2022-12-07T05:35:06;100329.66;;;1.74;100.00
71567;BME280;59403;47.456;19.120;2022-12-07T05:37:33;100326.13;;;1.75;100.00
71567;BME280;59403;47.456;19.120;2022-12-07T05:40:00;100333.13;;;1.74;100.00
71567;BME280;59403;47.456;19.120;2022-12-07T05:42:29;100322.78;;;1.73;100.00
71567;BME280;59403;47.456;19.120;2022-12-07T05:44:55;100313.19;;;1.73;100.00
71567;BME280;59403;47.456;19.120;2022-12-07T05:47:22;100316.72;;;1.72;100.00
71567;BME280;59403;47.456;19.120;2022-12-07T05:49:49;100312.56;;;1.70;100.00
71567;BME280;59403;47.456;19.120;2022-12-07T05:52:16;100310.69;;;1.72;100.00
71567;BME280;59403;47.456;19.120;2022-12-07T05:54:43;100315.37;;;1.67;100.00
71567;BME280;59403;47.456;19.120;2022-12-07T05:57:10;100314.44;;;1.68;100.00
71567;BME280;59403;47.456;19.120;2022-12-07T05:59:38;100321.53;;;1.66;100.00
71567;BME280;59403;47.456;19.120;2022-12-07T06:02:06;100306.72;;;1.66;100.00
71567;BME280;59403;47.456;19.120;2022-12-07T06:04:35;100317.25;;;1.65;100.00
71567;BME280;59403;47.456;19.120;2022-12-07T06:07:02;100313.81;;;1.64;100.00
71567;BME280;59403;47.456;19.120;2022-12-07T06:09:29;100312.03;;;1.65;100.00
71567;BME280;59403;47.456;19.120;2022-12-07T06:11:57;100320.78;;;1.64;100.00
71567;BME280;59403;47.456;19.120;2022-12-07T06:14:43;100312.97;;;1.64;100.00
71567;BME280;59403;47.456;19.120;2022-12-07T06:17:11;100310.97;;;1.67;100.00
71567;BME280;59403;47.456;19.120;2022-12-07T06:19:38;100308.37;;;1.67;100.00
71567;BME280;59403;47.456;19.120;2022-12-07T06:22:06;100310.97;;;1.67;100.00
71567;BME280;59403;47.456;19.120;2022-12-07T06:24:34;100314.66;;;1.65;100.00
71567;BME280;59403;47.456;19.120;2022-12-07T06:27:01;100316.31;;;1.66;100.00
71567;BME280;59403;47.456;19.120;2022-12-07T06:29:28;100318.00;;;1.67;100.00
71567;BME280;59403;47.456;19.120;2022-12-07T06:31:57;100317.91;;;1.68;100.00
71567;BME280;59403;47.456;19.120;2022-12-07T06:34:25;100317.69;;;1.71;100.00
71567;BME280;59403;47.456;19.120;2022-12-07T06:36:53;100321.13;;;1.72;100.00
71567;BME280;59403;47.456;19.120;2022-12-07T06:39:22;100326.34;;;1.72;100.00
71567;BME280;59403;47.456;19.120;2022-12-07T06:41:49;100321.13;;;1.72;100.00
71567;BME280;59403;47.456;19.120;2022-12-07T06:44:18;100323.22;;;1.67;100.00
71567;BME280;59403;47.456;19.120;2022-12-07T06:46:45;100331.69;;;1.70;100.00
71567;BME280;59403;47.456;19.120;2022-12-07T06:49:13;100327.38;;;1.69;100.00
71567;BME280;59403;47.456;19.120;2022-12-07T06:51:40;100328.00;;;1.73;100.00
71567;BME280;59403;47.456;19.120;2022-12-07T06:54:07;100331.69;;;1.70;100.00
71567;BME280;59403;47.456;19.120;2022-12-07T06:56:35;100334.28;;;1.70;100.00
71567;BME280;59403;47.456;19.120;2022-12-07T06:59:02;100334.88;;;1.74;100.00
71567;BME280;59403;47.456;19.120;2022-12-07T07:01:30;100327.69;;;1.77;100.00
71567;BME280;59403;47.456;19.120;2022-12-07T07:03:57;100334.72;;;1.77;100.00
71567;BME280;59403;47.456;19.120;2022-12-07T07:06:26;100342.31;;;1.80;100.00
71567;BME280;59403;47.456;19.120;2022-12-07T07:08:53;100345.66;;;1.82;100.00
71567;BME280;59403;47.456;19.120;2022-12-07T07:11:20;100337.00;;;1.81;100.00
71567;BME280;59403;47.456;19.120;2022-12-07T07:13:46;100338.59;;;1.84;100.00
71567;BME280;59403;47.456;19.120;2022-12-07T07:16:13;100339.00;;;1.90;100.00
71567;BME280;59403;47.456;19.120;2022-12-07T07:18:40;100342.63;;;1.88;100.00
71567;BME280;59403;47.456;19.120;2022-12-07T07:21:07;100342.44;;;1.91;100.00
71567;BME280;59403;47.456;19.120;2022-12-07T07:23:36;100340.56;;;1.93;100.00
71567;BME280;59403;47.456;19.120;2022-12-07T07:26:03;100338.66;;;1.95;100.00
71567;BME280;59403;47.456;19.120;2022-12-07T07:28:29;100340.47;;;1.94;100.00
71567;BME280;59403;47.456;19.120;2022-12-07T07:30:56;100342.88;;;1.97;100.00
71567;BME280;59403;47.456;19.120;2022-12-07T07:33:23;100340.16;;;1.99;100.00
71567;BME280;59403;47.456;19.120;2022-12-07T07:35:50;100341.63;;;2.03;100.00
71567;BME280;59403;47.456;19.120;2022-12-07T07:38:17;100351.84;;;2.06;100.00
71567;BME280;59403;47.456;19.120;2022-12-07T07:40:45;100347.34;;;2.08;100.00
71567;BME280;59403;47.456;19.120;2022-12-07T07:43:15;100346.41;;;2.09;100.00
71567;BME280;59403;47.456;19.120;2022-12-07T07:45:42;100341.00;;;2.12;100.00
71567;BME280;59403;47.456;19.120;2022-12-07T07:48:15;100348.63;;;2.15;100.00
71567;BME280;59403;47.456;19.120;2022-12-07T07:50:51;100353.62;;;2.18;100.00
71567;BME280;59403;47.456;19.120;2022-12-07T07:53:18;100346.53;;;2.20;100.00
71567;BME280;59403;47.456;19.120;2022-12-07T07:55:52;100344.63;;;2.22;100.00
71567;BME280;59403;47.456;19.120;2022-12-07T07:58:20;100346.91;;;2.26;100.00
71567;BME280;59403;47.456;19.120;2022-12-07T08:00:47;100346.00;;;2.27;100.00
71567;BME280;59403;47.456;19.120;2022-12-07T08:03:13;100346.00;;;2.27;100.00
71567;BME280;59403;47.456;19.120;2022-12-07T08:05:41;100354.47;;;2.31;100.00
71567;BME280;59403;47.456;19.120;2022-12-07T08:08:07;100354.97;;;2.36;100.00
71567;BME280;59403;47.456;19.120;2022-12-07T08:10:34;100349.03;;;2.34;100.00
71567;BME280;59403;47.456;19.120;2022-12-07T08:13:03;100350.38;;;2.40;100.00
71567;BME280;59403;47.456;19.120;2022-12-07T08:15:41;100343.25;;;2.42;100.00
71567;BME280;59403;47.456;19.120;2022-12-07T08:18:09;100350.66;;;2.48;100.00
71567;BME280;59403;47.456;19.120;2022-12-07T08:20:37;100345.22;;;2.51;100.00
71567;BME280;59403;47.456;19.120;2022-12-07T08:23:04;100358.91;;;2.54;100.00
71567;BME280;59403;47.456;19.120;2022-12-07T08:25:32;100358.72;;;2.57;100.00
71567;BME280;59403;47.456;19.120;2022-12-07T08:27:59;100363.59;;;2.62;100.00
71567;BME280;59403;47.456;19.120;2022-12-07T08:30:28;100361.63;;;2.65;100.00
71567;BME280;59403;47.456;19.120;2022-12-07T08:32:56;100352.69;;;2.68;100.00
71567;BME280;59403;47.456;19.120;2022-12-07T08:35:23;100356.47;;;2.76;100.00
71567;BME280;59403;47.456;19.120;2022-12-07T08:37:50;100357.69;;;2.83;100.00
71567;BME280;59403;47.456;19.120;2022-12-07T08:40:17;100352.16;;;2.88;100.00
71567;BME280;59403;47.456;19.120;2022-12-07T08:42:44;100370.09;;;2.92;100.00
71567;BME280;59403;47.456;19.120;2022-12-07T08:45:16;100361.94;;;2.97;100.00
71567;BME280;59403;47.456;19.120;2022-12-07T08:47:48;100368.41;;;3.04;100.00
71567;BME280;59403;47.456;19.120;2022-12-07T08:50:17;100368.19;;;3.07;100.00
71567;BME280;59403;47.456;19.120;2022-12-07T08:52:44;100362.41;;;3.14;100.00
71567;BME280;59403;47.456;19.120;2022-12-07T08:55:14;100367.31;;;3.19;100.00
71567;BME280;59403;47.456;19.120;2022-12-07T08:57:40;100362.78;;;3.21;100.00
71567;BME280;59403;47.456;19.120;2022-12-07T09:00:09;100362.34;;;3.27;100.00
71567;BME280;59403;47.456;19.120;2022-12-07T09:02:36;100359.53;;;3.30;100.00
71567;BME280;59403;47.456;19.120;2022-12-07T09:05:05;100371.28;;;3.35;100.00
71567;BME280;59403;47.456;19.120;2022-12-07T09:07:32;100364.66;;;3.42;100.00
71567;BME280;59403;47.456;19.120;2022-12-07T09:10:01;100374.81;;;3.47;100.00
71567;BME280;59403;47.456;19.120;2022-12-07T09:12:27;100372.69;;;3.52;100.00
71567;BME280;59403;47.456;19.120;2022-12-07T09:14:55;100368.06;;;3.56;100.00
71567;BME280;59403;47.456;19.120;2022-12-07T09:17:22;100363.56;;;3.58;100.00
71567;BME280;59403;47.456;19.120;2022-12-07T09:19:49;100360.59;;;3.62;100.00
71567;BME280;59403;47.456;19.120;2022-12-07T09:22:17;100346.31;;;3.66;100.00
71567;BME280;59403;47.456;19.120;2022-12-07T09:24:44;100352.91;;;3.72;100.00
71567;BME280;59403;47.456;19.120;2022-12-07T09:27:11;100349.06;;;3.76;100.00
71567;BME280;59403;47.456;19.120;2022-12-07T09:29:38;100345.53;;;3.77;100.00
71567;BME280;59403;47.456;19.120;2022-12-07T09:32:05;100354.81;;;3.81;100.00
71567;BME280;59403;47.456;19.120;2022-12-07T09:34:32;100346.63;;;3.85;100.00
71567;BME280;59403;47.456;19.120;2022-12-07T09:37:01;100345.41;;;3.89;100.00
71567;BME280;59403;47.456;19.120;2022-12-07T09:39:30;100339.00;;;3.93;100.00
71567;BME280;59403;47.456;19.120;2022-12-07T09:41:58;100341.28;;;3.98;100.00
71567;BME280;59403;47.456;19.120;2022-12-07T09:44:29;100341.91;;;4.01;100.00
71567;BME280;59403;47.456;19.120;2022-12-07T09:46:56;100344.28;;;4.04;100.00
71567;BME280;59403;47.456;19.120;2022-12-07T09:49:25;100339.03;;;4.04;100.00
71567;BME280;59403;47.456;19.120;2022-12-07T09:52:01;100336.16;;;4.07;100.00
71567;BME280;59403;47.456;19.120;2022-12-07T09:54:30;100331.78;;;4.08;100.00
71567;BME280;59403;47.456;19.120;2022-12-07T09:57:00;100332.37;;;4.11;100.00
71567;BME280;59403;47.456;19.120;2022-12-07T09:59:27;100329.25;;;4.17;100.00
71567;BME280;59403;47.456;19.120;2022-12-07T10:01:55;100329.53;;;4.25;100.00
71567;BME280;59403;47.456;19.120;2022-12-07T10:04:23;100326.53;;;4.30;100.00
71567;BME280;59403;47.456;19.120;2022-12-07T10:06:51;100324.63;;;4.32;100.00
71567;BME280;59403;47.456;19.120;2022-12-07T10:09:19;100316.78;;;4.32;100.00
71567;BME280;59403;47.456;19.120;2022-12-07T10:12:03;100318.31;;;4.34;100.00
71567;BME280;59403;47.456;19.120;2022-12-07T10:14:32;100311.03;;;4.38;100.00
71567;BME280;59403;47.456;19.120;2022-12-07T10:17:00;100314.16;;;4.43;100.00
71567;BME280;59403;47.456;19.120;2022-12-07T10:19:28;100314.03;;;4.44;100.00
71567;BME280;59403;47.456;19.120;2022-12-07T10:22:38;100313.19;;;4.44;100.00
71567;BME280;59403;47.456;19.120;2022-12-07T10:25:46;100311.03;;;4.38;100.00
71567;BME280;59403;47.456;19.120;2022-12-07T10:28:17;100308.31;;;4.39;100.00
71567;BME280;59403;47.456;19.120;2022-12-07T10:30:51;100302.56;;;4.45;100.00
71567;BME280;59403;47.456;19.120;2022-12-07T10:33:29;100314.38;;;4.51;100.00
71567;BME280;59403;47.456;19.120;2022-12-07T10:35:57;100319.25;;;4.55;100.00
71567;BME280;59403;47.456;19.120;2022-12-07T10:38:25;100308.63;;;4.57;100.00
71567;BME280;59403;47.456;19.120;2022-12-07T10:41:04;100308.16;;;4.63;100.00
71567;BME280;59403;47.456;19.120;2022-12-07T10:43:32;100302.44;;;4.69;100.00
71567;BME280;59403;47.456;19.120;2022-12-07T10:49:07;100298.94;;;4.80;100.00
71567;BME280;59403;47.456;19.120;2022-12-07T10:51:46;100286.91;;;4.88;100.00
71567;BME280;59403;47.456;19.120;2022-12-07T10:54:21;100291.75;;;4.93;100.00
71567;BME280;59403;47.456;19.120;2022-12-07T10:57:07;100285.31;;;4.97;100.00
71567;BME280;59403;47.456;19.120;2022-12-07T10:59:51;100291.84;;;5.02;100.00
71567;BME280;59403;47.456;19.120;2022-12-07T11:02:35;100295.19;;;5.04;100.00
71567;BME280;59403;47.456;19.120;2022-12-07T11:05:13;100293.41;;;5.05;100.00
71567;BME280;59403;47.456;19.120;2022-12-07T11:07:49;100288.16;;;5.05;100.00
71567;BME280;59403;47.456;19.120;2022-12-07T11:10:23;100292.91;;;5.11;100.00
71567;BME280;59403;47.456;19.120;2022-12-07T11:13:08;100285.63;;;5.14;100.00
71567;BME280;59403;47.456;19.120;2022-12-07T11:15:51;100275.31;;;5.22;100.00
71567;BME280;59403;47.456;19.120;2022-12-07T11:18:25;100287.69;;;5.31;100.00
71567;BME280;59403;47.456;19.120;2022-12-07T11:20:59;100280.72;;;5.41;100.00
71567;BME280;59403;47.456;19.120;2022-12-07T11:23:43;100283.22;;;5.43;100.00
71567;BME280;59403;47.456;19.120;2022-12-07T11:26:20;100271.37;;;5.48;100.00
71567;BME280;59403;47.456;19.120;2022-12-07T11:29:03;100274.56;;;5.52;100.00
71567;BME280;59403;47.456;19.120;2022-12-07T11:31:37;100266.16;;;5.58;100.00
71567;BME280;59403;47.456;19.120;2022-12-07T11:34:16;100265.03;;;5.71;100.00
71567;BME280;59403;47.456;19.120;2022-12-07T11:36:47;100261.84;;;5.68;98.72
71567;BME280;59403;47.456;19.120;2022-12-07T11:39:22;100262.28;;;5.73;98.24
71567;BME280;59403;47.456;19.120;2022-12-07T11:41:55;100267.53;;;5.73;95.42
71567;BME280;59403;47.456;19.120;2022-12-07T11:44:30;100264.91;;;5.73;95.65
71567;BME280;59403;47.456;19.120;2022-12-07T11:47:04;100263.78;;;5.75;93.77
71567;BME280;59403;47.456;19.120;2022-12-07T11:49:41;100263.94;;;5.74;93.26
71567;BME280;59403;47.456;19.120;2022-12-07T11:52:16;100265.84;;;5.72;94.50
71567;BME280;59403;47.456;19.120;2022-12-07T11:54:45;100264.37;;;5.79;96.06
71567;BME280;59403;47.456;19.120;2022-12-07T11:57:17;100275.16;;;5.76;93.32
71567;BME280;59403;47.456;19.120;2022-12-07T11:59:48;100271.78;;;5.85;94.62
71567;BME280;59403;47.456;19.120;2022-12-07T12:02:21;100279.69;;;5.95;92.97
71567;BME280;59403;47.456;19.120;2022-12-07T12:04:54;100283.56;;;5.91;91.42
71567;BME280;59403;47.456;19.120;2022-12-07T12:07:25;100285.50;;;5.89;91.78
71567;BME280;59403;47.456;19.120;2022-12-07T12:09:55;100277.37;;;5.80;90.70
71567;BME280;59403;47.456;19.120;2022-12-07T12:12:45;100268.81;;;5.78;91.28
71567;BME280;59403;47.456;19.120;2022-12-07T12:15:30;100267.34;;;5.86;92.70
71567;BME280;59403;47.456;19.120;2022-12-07T12:18:13;100260.16;;;5.88;92.65
71567;BME280;59403;47.456;19.120;2022-12-07T12:20:47;100247.78;;;5.78;90.60
71567;BME280;59403;47.456;19.120;2022-12-07T12:23:19;100241.69;;;5.78;89.31
71567;BME280;59403;47.456;19.120;2022-12-07T12:25:50;100234.28;;;5.83;90.78
71567;BME280;59403;47.456;19.120;2022-12-07T12:28:23;100230.81;;;5.83;87.77
71567;BME280;59403;47.456;19.120;2022-12-07T12:31:10;100223.81;;;5.93;89.00
71567;BME280;59403;47.456;19.120;2022-12-07T12:33:43;100232.38;;;5.85;91.69
71567;BME280;59403;47.456;19.120;2022-12-07T12:36:24;100229.25;;;5.80;92.11
71567;BME280;59403;47.456;19.120;2022-12-07T12:39:09;100217.97;;;5.68;91.47
71567;BME280;59403;47.456;19.120;2022-12-07T12:41:58;100218.12;;;5.67;89.67
71567;BME280;59403;47.456;19.120;2022-12-07T12:50:34;100212.56;;;5.60;89.45
71567;BME280;59403;47.456;19.120;2022-12-07T12:53:23;100211.00;;;5.58;89.93
71567;BME280;59403;47.456;19.120;2022-12-07T12:56:17;100217.53;;;5.63;89.47
71567;BME280;59403;47.456;19.120;2022-12-07T13:02:16;100223.31;;;5.78;91.28
71567;BME280;59403;47.456;19.120;2022-12-07T13:04:53;100216.37;;;5.77;91.32
71567;BME280;59403;47.456;19.120;2022-12-07T13:07:54;100224.00;;;5.80;88.72
71567;BME280;59403;47.456;19.120;2022-12-07T13:10:43;100224.34;;;5.87;87.02
71567;BME280;59403;47.456;19.120;2022-12-07T13:13:33;100229.41;;;5.78;88.84
71567;BME280;59403;47.456;19.120;2022-12-07T13:22:41;100231.13;;;5.68;90.08
71567;BME280;59403;47.456;19.120;2022-12-07T13:25:12;100229.84;;;5.63;89.68